Prince Albert Glass Field
CYPA : now visible

Airfield :











YOU CAN JOIN US ON...

 
LOGIN :

Register | Disclaimer

   EN    FR    IT 

 









Legend :    VFR   Marginal VFR   IFR   Intensive IFR   Very Intensive IFR
Visi :
Ceiling :
>= 8 km
>= 3000ft
5 to 8 km
1000 to 3000 ft
1500m to 5 km
500 to 1000 ft
800 to 1500m
200 to 500 ft
< 800m
< 200 ft
Symbols :   Thunderstorms  Fog  Heavy snow  Heavy precipitations  Wind > 20 kt







- Airport Elevation : 1405 ft
- IATA code : YPA


CYPA - Prince Albert Glass Field

CURRENT METAR :
  • 201505Z 29008KT 7SM OVC006 12/12 A2974 RMK ST8 SLP082 DENSITY ALT 1700FT

EXPIRED METARs :
  • 201357Z 29005KT 4SM BR OVC002 11/11 A2974 RMK ST8 SLP080 DENSITY ALT 1600FT
  • 201311Z 28006KT 10SM OVC003 11/11 A2972 RMK ST8 SLP075 DENSITY ALT 1600FT

TAF TAF CYPA
Valid from the 20 at 13:00 until the 21 at 01:00 UTC


201242Z 2013/2101 VRB03KT 6SM BR SCT005 OVC012
TEMPO 2013/2015 2SM BR OVC005
FM201500 30008KT P6SM BKN012
TEMPO 2015/2019 SCT012 BKN030
FM201900 29010KT P6SM FEW040 RMK NXT FCST BY 201900Z
No reported NOTAMs for that airfield.



MET'MAP, your aeronautical weather chart ! - Copyright ORBIFLY December 2007 - Disclaimer

ORBIFLY MET'MAP TEAM :

Programming & Development : Alexandra Zaïnal
Concept & Development : Baudouin d'Aumeries
Co-Development & Prog : Marc-Olivier Méhu
Technical & hardware support : Manuel Goepfert

Contact : metmap@orbifly.com




SOURCES & CREDITS :

   NOAA       Earth
Advisory